King of Scandinavia — OVOL2 — position and weather

sailwx.info

Track history (hours):
 
Tides and Currents Weather Stations Pressure Air Temp Water Temp Dewpoint Dewpoint Depression Visibility Wind Speed Wind Dir Waves Ship Positions

King of Scandinavia

Ship's website: http://www.dfds.co.uk/DSW/EN/OnBoard/na/KING.htm

Last reported at 2016-Apr-30 21:19 UTC. Time now 2016-May-01 04:18 UTC.
Position N 54°14' E 000°45'.

Length 166 m; beam 27.6 m; draft 6.2 m.

Type: Passenger vessel. MMSI: 220449000.

Date/timePositionNaut miles runAvg speedWind from/ knotsBaromVisibWave heightAir tempDewpointWater temp
2016-Apr-30 21:19N 54°14' E 000°45'1418.3
2016-Apr-30 20:33N 54°22' E 000°25'1818.3
2016-Apr-30 19:33N 54°32' W 000°01'1818.0
2016-Apr-30 18:33N 54°42' W 000°28'1717.6
2016-Apr-30 17:33N 54°51' W 000°53'1817.7
2016-Apr-30 16:33N 54°60' W 001°20'4 0.5
2016-Apr-30 09:03N 54°59' W 001°27'0 0.0
2016-Apr-30 08:32N 54°59' W 001°27'5 4.9
2016-Apr-30 07:33N 54°60' W 001°19'1818.3
2016-Apr-30 06:33N 54°47' W 000°57'2018.5
2016-Apr-30 05:29N 54°34' W 000°29'1718.7
2016-Apr-30 04:33N 54°29' W 000°01'1918.5
2016-Apr-30 03:33N 54°20' E 000°27'16816.1
2016-Apr-29 17:04N 52°39' E 004°13'714.6
2016-Apr-29 16:33N 52°34' E 004°22'1010.0
2016-Apr-29 15:33N 52°28' E 004°35'0 0.0
2016-Apr-29 14:33N 52°28' E 004°35'0 0.0
2016-Apr-29 13:33N 52°28' E 004°35'0 0.0
2016-Apr-29 12:33N 52°28' E 004°35'0 0.0
2016-Apr-29 11:33N 52°28' E 004°35'0 0.0
2016-Apr-29 10:33N 52°28' E 004°35'0 0.0
2016-Apr-29 09:33N 52°28' E 004°35'0 0.0
2016-Apr-29 08:30N 52°28' E 004°35'0 0.2
2016-Apr-29 07:33N 52°28' E 004°35'1313.1
2016-Apr-29 06:33N 52°36' E 004°18'16417.5
2016-Apr-28 21:10N 54°15' E 000°39'1118.6
2016-Apr-28 20:34N 54°22' E 000°23'1818.3
2016-Apr-28 19:34N 54°32' W 000°03'1817.9
2016-Apr-28 18:34N 54°42' W 000°29'1717.3
2016-Apr-28 17:33N 54°51' W 000°54'1717.3
2016-Apr-28 16:34N 55°00' W 001°20'4 3.8
2016-Apr-28 15:33N 54°59' W 001°27'0 0.0
2016-Apr-28 14:22N 54°59' W 001°27'0 0.0
2016-Apr-28 13:25N 54°59' W 001°27'0 0.0
2016-Apr-28 08:15N 54°59' W 001°27'6 8.1
2016-Apr-28 07:34N 54°59' W 001°17'1514.8
2016-Apr-28 06:33N 54°51' W 000°56'1514.5
2016-Apr-28 05:33N 54°43' W 000°34'1414.6
2016-Apr-28 04:34N 54°36' W 000°13'1515.1
2016-Apr-28 03:34N 54°28' E 000°09'1616.1
2016-Apr-28 02:33N 54°19' E 000°32'16517.8
2016-Apr-27 17:17N 52°39' E 004°13'1418.7
2016-Apr-27 16:34N 52°29' E 004°29'4 4.1
2016-Apr-27 15:34N 52°28' E 004°35'0 0.0
2016-Apr-27 14:33N 52°28' E 004°35'0 0.0
2016-Apr-27 13:33N 52°28' E 004°35'0 0.0
2016-Apr-27 12:33N 52°28' E 004°35'0 0.0
2016-Apr-27 11:33N 52°28' E 004°35'0 0.0
2016-Apr-27 10:33N 52°28' E 004°35'0 0.0
2016-Apr-27 09:33N 52°28' E 004°35'0 0.0
2016-Apr-27 08:33N 52°28' E 004°35'0 0.2
2016-Apr-27 07:33N 52°28' E 004°35'9 8.8
2016-Apr-27 06:33N 52°32' E 004°22'16916.8
2016-Apr-26 20:28N 54°10' E 000°31'1820.1
2016-Apr-26 19:33N 54°17' E 000°02'2120.7
2016-Apr-26 18:33N 54°28' W 000°27'2120.9
2016-Apr-26 17:33N 54°41' W 000°56'2120.5
2016-Apr-26 16:32N 54°58' W 001°18'5 5.3
2016-Apr-26 15:32N 54°59' W 001°27'0 0.0
2016-Apr-26 09:32N 54°59' W 001°27'9 9.7
2016-Apr-26 08:33N 54°55' W 001°13'1716.8
2016-Apr-26 07:33N 54°42' W 000°54'1616.2
2016-Apr-26 06:33N 54°31' W 000°32'1514.9
2016-Apr-26 05:34N 54°23' W 000°12'1414.3
2016-Apr-26 04:33N 54°18' E 000°12'17614.6
2016-Apr-25 16:30N 52°37' E 004°15'1616.4
2016-Apr-25 15:34N 52°28' E 004°35'0 0.1
2016-Apr-25 14:32N 52°28' E 004°35'0 0.0
2016-Apr-25 13:32N 52°28' E 004°35'0 0.0
2016-Apr-25 12:32N 52°28' E 004°35'0 0.0
2016-Apr-25 11:32N 52°28' E 004°35'0 0.0
2016-Apr-25 10:32N 52°28' E 004°35'0 0.0
2016-Apr-25 09:32N 52°28' E 004°35'0 0.0
2016-Apr-25 08:32N 52°28' E 004°35'7 6.9
2016-Apr-25 07:33N 52°31' E 004°26'16817.9
2016-Apr-24 22:10N 54°15' E 000°43'1117.4
2016-Apr-24 21:33N 54°21' E 000°28'1817.6
2016-Apr-24 20:33N 54°30' E 000°03'1817.9
2016-Apr-24 19:33N 54°40' W 000°24'1818.4
2016-Apr-24 18:33N 54°50' W 000°51'1818.3
2016-Apr-24 17:33N 54°59' W 001°18'5 5.1
2016-Apr-24 16:32N 54°59' W 001°27'1 0.1
2016-Apr-24 07:33N 55°01' W 001°26'1816.7
2016-Apr-24 06:30N 54°49' W 001°03'1717.3
2016-Apr-24 05:33N 54°38' W 000°41'1716.9
2016-Apr-24 04:33N 54°32' W 000°14'1717.0
2016-Apr-24 03:33N 54°26' E 000°13'18117.2
2016-Apr-23 17:03N 52°37' E 004°16'816.0
2016-Apr-23 16:33N 52°31' E 004°25'7 7.3
2016-Apr-23 15:33N 52°28' E 004°35'0 0.0
2016-Apr-23 14:31N 52°28' E 004°35'0 0.0
2016-Apr-23 13:31N 52°28' E 004°35'0 0.0
2016-Apr-23 12:31N 52°28' E 004°35'0 0.0
2016-Apr-23 11:31N 52°28' E 004°35'0 0.0
2016-Apr-23 10:31N 52°28' E 004°35'0 0.0
2016-Apr-23 09:31N 52°28' E 004°35'0 0.0
2016-Apr-23 08:31N 52°28' E 004°35'0 0.0
2016-Apr-23 07:34N 52°28' E 004°35'1010.0
2016-Apr-23 06:34N 52°33' E 004°21'17217.2
2016-Apr-22 20:33N 54°18' E 000°34'1817.8
2016-Apr-22 19:33N 54°28' E 000°08'1818.3
2016-Apr-22 18:34N 54°37' W 000°19'1918.7
2016-Apr-22 17:33N 54°47' W 000°46'1918.7
2016-Apr-22 16:33N 54°58' W 001°14'8 7.9
2016-Apr-22 15:33N 54°59' W 001°27'0 0.0
2016-Apr-22 08:12N 54°59' W 001°27'5 8.0
2016-Apr-22 07:34N 55°00' W 001°18'2019.7
2016-Apr-22 06:32N 54°49' W 000°48'1819.0
2016-Apr-22 05:33N 54°39' W 000°22'1717.2
2016-Apr-22 04:34N 54°30' E 000°03'1716.9
2016-Apr-22 03:33N 54°20' E 000°27'10416.4
2016-Apr-21 21:11N 53°19' E 002°50'1214.6
2016-Apr-21 20:23N 53°12' E 003°06'1214.5
2016-Apr-21 19:33N 53°05' E 003°21'1714.7
2016-Apr-21 18:23N 52°54' E 003°44'1415.0
2016-Apr-21 17:28N 52°45' E 004°01'1415.7
2016-Apr-21 16:33N 52°35' E 004°18'1312.6
2016-Apr-21 15:34N 52°28' E 004°35'0 0.0
2016-Apr-21 14:33N 52°28' E 004°35'0 0.0
2016-Apr-21 13:33N 52°28' E 004°35'0 0.0
2016-Apr-21 12:33N 52°28' E 004°35'0 0.0
2016-Apr-21 11:33N 52°28' E 004°35'0 0.0
2016-Apr-21 10:33N 52°28' E 004°35'0 0.0
2016-Apr-21 09:33N 52°28' E 004°35'0 0.0
2016-Apr-21 08:33N 52°28' E 004°35'0 0.1
2016-Apr-21 07:33N 52°28' E 004°35'1313.2
2016-Apr-21 06:33N 52°36' E 004°17'1919.1
2016-Apr-21 05:32N 52°48' E 003°53'3818.9
2016-Apr-21 03:33N 53°13' E 003°06'1818.5
2016-Apr-21 02:33N 53°25' E 002°42'1818.3
2016-Apr-21 01:33N 53°37' E 002°19'1818.1
2016-Apr-21 00:33N 53°47' E 001°54'1818.1
2016-Apr-20 23:33N 53°57' E 001°29'1818.1
2016-Apr-20 22:33N 54°07' E 001°03'1817.6
2016-Apr-20 21:33N 54°17' E 000°38'  
Track history (hours):
 
Tides and Currents Weather Stations Pressure Air Temp Water Temp Dewpoint Dewpoint Depression Visibility Wind Speed Wind Dir Waves Ship Positions

King of Scandinavia

Ship's website: http://www.dfds.co.uk/DSW/EN/OnBoard/na/KING.htm

Last reported at 2016-Apr-30 21:19 UTC. Time now 2016-May-01 04:18 UTC.
Position N 54°14' E 000°45'.

Length 166 m; beam 27.6 m; draft 6.2 m.

Type: Passenger vessel. MMSI: 220449000.

Date/timePositionNaut miles runAvg speedWind from/ knotsBaromVisibWave heightAir tempDewpointWater temp
2016-Apr-30 21:19N 54°14' E 000°45'1418.3
2016-Apr-30 20:33N 54°22' E 000°25'1818.3
2016-Apr-30 19:33N 54°32' W 000°01'1818.0
2016-Apr-30 18:33N 54°42' W 000°28'1717.6
2016-Apr-30 17:33N 54°51' W 000°53'1817.7
2016-Apr-30 16:33N 54°60' W 001°20'4 0.5
2016-Apr-30 09:03N 54°59' W 001°27'0 0.0
2016-Apr-30 08:32N 54°59' W 001°27'5 4.9
2016-Apr-30 07:33N 54°60' W 001°19'1818.3
2016-Apr-30 06:33N 54°47' W 000°57'2018.5
2016-Apr-30 05:29N 54°34' W 000°29'1718.7
2016-Apr-30 04:33N 54°29' W 000°01'1918.5
2016-Apr-30 03:33N 54°20' E 000°27'16816.1
2016-Apr-29 17:04N 52°39' E 004°13'714.6
2016-Apr-29 16:33N 52°34' E 004°22'1010.0
2016-Apr-29 15:33N 52°28' E 004°35'0 0.0
2016-Apr-29 14:33N 52°28' E 004°35'0 0.0
2016-Apr-29 13:33N 52°28' E 004°35'0 0.0
2016-Apr-29 12:33N 52°28' E 004°35'0 0.0
2016-Apr-29 11:33N 52°28' E 004°35'0 0.0
2016-Apr-29 10:33N 52°28' E 004°35'0 0.0
2016-Apr-29 09:33N 52°28' E 004°35'0 0.0
2016-Apr-29 08:30N 52°28' E 004°35'0 0.2
2016-Apr-29 07:33N 52°28' E 004°35'1313.1
2016-Apr-29 06:33N 52°36' E 004°18'16417.5
2016-Apr-28 21:10N 54°15' E 000°39'1118.6
2016-Apr-28 20:34N 54°22' E 000°23'1818.3
2016-Apr-28 19:34N 54°32' W 000°03'1817.9
2016-Apr-28 18:34N 54°42' W 000°29'1717.3
2016-Apr-28 17:33N 54°51' W 000°54'1717.3
2016-Apr-28 16:34N 55°00' W 001°20'4 3.8
2016-Apr-28 15:33N 54°59' W 001°27'0 0.0
2016-Apr-28 14:22N 54°59' W 001°27'0 0.0
2016-Apr-28 13:25N 54°59' W 001°27'0 0.0
2016-Apr-28 08:15N 54°59' W 001°27'6 8.1
2016-Apr-28 07:34N 54°59' W 001°17'1514.8
2016-Apr-28 06:33N 54°51' W 000°56'1514.5
2016-Apr-28 05:33N 54°43' W 000°34'1414.6
2016-Apr-28 04:34N 54°36' W 000°13'1515.1
2016-Apr-28 03:34N 54°28' E 000°09'1616.1
2016-Apr-28 02:33N 54°19' E 000°32'16517.8
2016-Apr-27 17:17N 52°39' E 004°13'1418.7
2016-Apr-27 16:34N 52°29' E 004°29'4 4.1
2016-Apr-27 15:34N 52°28' E 004°35'0 0.0
2016-Apr-27 14:33N 52°28' E 004°35'0 0.0
2016-Apr-27 13:33N 52°28' E 004°35'0 0.0
2016-Apr-27 12:33N 52°28' E 004°35'0 0.0
2016-Apr-27 11:33N 52°28' E 004°35'0 0.0
2016-Apr-27 10:33N 52°28' E 004°35'0 0.0
2016-Apr-27 09:33N 52°28' E 004°35'0 0.0
2016-Apr-27 08:33N 52°28' E 004°35'0 0.2
2016-Apr-27 07:33N 52°28' E 004°35'9 8.8
2016-Apr-27 06:33N 52°32' E 004°22'16916.8
2016-Apr-26 20:28N 54°10' E 000°31'1820.1
2016-Apr-26 19:33N 54°17' E 000°02'2120.7
2016-Apr-26 18:33N 54°28' W 000°27'2120.9
2016-Apr-26 17:33N 54°41' W 000°56'2120.5
2016-Apr-26 16:32N 54°58' W 001°18'5 5.3
2016-Apr-26 15:32N 54°59' W 001°27'0 0.0
2016-Apr-26 09:32N 54°59' W 001°27'9 9.7
2016-Apr-26 08:33N 54°55' W 001°13'1716.8
2016-Apr-26 07:33N 54°42' W 000°54'1616.2
2016-Apr-26 06:33N 54°31' W 000°32'1514.9
2016-Apr-26 05:34N 54°23' W 000°12'1414.3
2016-Apr-26 04:33N 54°18' E 000°12'17614.6
2016-Apr-25 16:30N 52°37' E 004°15'1616.4
2016-Apr-25 15:34N 52°28' E 004°35'0 0.1
2016-Apr-25 14:32N 52°28' E 004°35'0 0.0
2016-Apr-25 13:32N 52°28' E 004°35'0 0.0
2016-Apr-25 12:32N 52°28' E 004°35'0 0.0
2016-Apr-25 11:32N 52°28' E 004°35'0 0.0
2016-Apr-25 10:32N 52°28' E 004°35'0 0.0
2016-Apr-25 09:32N 52°28' E 004°35'0 0.0
2016-Apr-25 08:32N 52°28' E 004°35'7 6.9
2016-Apr-25 07:33N 52°31' E 004°26'16817.9
2016-Apr-24 22:10N 54°15' E 000°43'1117.4
2016-Apr-24 21:33N 54°21' E 000°28'1817.6
2016-Apr-24 20:33N 54°30' E 000°03'1817.9
2016-Apr-24 19:33N 54°40' W 000°24'1818.4
2016-Apr-24 18:33N 54°50' W 000°51'1818.3
2016-Apr-24 17:33N 54°59' W 001°18'5 5.1
2016-Apr-24 16:32N 54°59' W 001°27'1 0.1
2016-Apr-24 07:33N 55°01' W 001°26'1816.7
2016-Apr-24 06:30N 54°49' W 001°03'1717.3
2016-Apr-24 05:33N 54°38' W 000°41'1716.9
2016-Apr-24 04:33N 54°32' W 000°14'1717.0
2016-Apr-24 03:33N 54°26' E 000°13'18117.2
2016-Apr-23 17:03N 52°37' E 004°16'816.0
2016-Apr-23 16:33N 52°31' E 004°25'7 7.3
2016-Apr-23 15:33N 52°28' E 004°35'0 0.0
2016-Apr-23 14:31N 52°28' E 004°35'0 0.0
2016-Apr-23 13:31N 52°28' E 004°35'0 0.0
2016-Apr-23 12:31N 52°28' E 004°35'0 0.0
2016-Apr-23 11:31N 52°28' E 004°35'0 0.0
2016-Apr-23 10:31N 52°28' E 004°35'0 0.0
2016-Apr-23 09:31N 52°28' E 004°35'0 0.0
2016-Apr-23 08:31N 52°28' E 004°35'0 0.0
2016-Apr-23 07:34N 52°28' E 004°35'1010.0
2016-Apr-23 06:34N 52°33' E 004°21'17217.2
2016-Apr-22 20:33N 54°18' E 000°34'1817.8
2016-Apr-22 19:33N 54°28' E 000°08'1818.3
2016-Apr-22 18:34N 54°37' W 000°19'1918.7
2016-Apr-22 17:33N 54°47' W 000°46'1918.7
2016-Apr-22 16:33N 54°58' W 001°14'8 7.9
2016-Apr-22 15:33N 54°59' W 001°27'0 0.0
2016-Apr-22 08:12N 54°59' W 001°27'5 8.0
2016-Apr-22 07:34N 55°00' W 001°18'2019.7
2016-Apr-22 06:32N 54°49' W 000°48'1819.0
2016-Apr-22 05:33N 54°39' W 000°22'1717.2
2016-Apr-22 04:34N 54°30' E 000°03'1716.9
2016-Apr-22 03:33N 54°20' E 000°27'10416.4
2016-Apr-21 21:11N 53°19' E 002°50'1214.6
2016-Apr-21 20:23N 53°12' E 003°06'1214.5
2016-Apr-21 19:33N 53°05' E 003°21'1714.7
2016-Apr-21 18:23N 52°54' E 003°44'1415.0
2016-Apr-21 17:28N 52°45' E 004°01'1415.7
2016-Apr-21 16:33N 52°35' E 004°18'1312.6
2016-Apr-21 15:34N 52°28' E 004°35'0 0.0
2016-Apr-21 14:33N 52°28' E 004°35'0 0.0
2016-Apr-21 13:33N 52°28' E 004°35'0 0.0
2016-Apr-21 12:33N 52°28' E 004°35'0 0.0
2016-Apr-21 11:33N 52°28' E 004°35'0 0.0
2016-Apr-21 10:33N 52°28' E 004°35'0 0.0
2016-Apr-21 09:33N 52°28' E 004°35'0 0.0
2016-Apr-21 08:33N 52°28' E 004°35'0 0.1
2016-Apr-21 07:33N 52°28' E 004°35'1313.2
2016-Apr-21 06:33N 52°36' E 004°17'1919.1
2016-Apr-21 05:32N 52°48' E 003°53'3818.9
2016-Apr-21 03:33N 53°13' E 003°06'1818.5
2016-Apr-21 02:33N 53°25' E 002°42'1818.3
2016-Apr-21 01:33N 53°37' E 002°19'1818.1
2016-Apr-21 00:33N 53°47' E 001°54'1818.1
2016-Apr-20 23:33N 53°57' E 001°29'1818.1
2016-Apr-20 22:33N 54°07' E 001°03'1817.6
2016-Apr-20 21:33N 54°17' E 000°38'  

Dump ship's entire track history